KFOE/FOE METAR and TAF weather

Enter ICAO airport designator
Station Type Date Time Source
KFOE METAR 2020/03/28 13:53 UTC NOAA

KFOE 281353Z 16010KT 3SM BR SCT003 17/16 A2949 RMK AO2 SLP982 T01670156


Station Type Date Time Source
KFOE Decoded METAR 2020/03/28 13:53 UTC NOAA

FORBES FIELD, KS, United States (KFOE) 38-56N 95-39W 320M
Mar 28, 2020 - 09:53 AM EDT / 2020.03.28 1353 UTC
Wind: from the SSE (160 degrees) at 12 MPH (10 KT):0
Visibility: 3 mile(s):0
Sky conditions: partly cloudy
Weather: mist
Temperature: 62.1 F (16.7 C)
Dew Point: 60.1 F (15.6 C)
Relative Humidity: 93%
Pressure (altimeter): 29.49 in. Hg (998 hPa)
ob: KFOE 281353Z 16010KT 3SM BR SCT003 17/16 A2949 RMK AO2 SLP982 T01670156
cycle: 14

Station Type Date Time Source
KFOE TAF 2020/03/28 14:39 UTC NOAA

TAF
AMD KFOE 281336Z 2814/2912 12006KT 1/4SM FG OVC002
TEMPO 2814/2815 2SM BR
FM281500 22025G31KT P6SM SCT015
FM282200 26025G36KT P6SM SCT025 BKN035
FM290600 27015G22KT P6SM FEW250

Example: see airport list